Terminal Aerodrome Forecast
Issued by NWS Mt. Holly, NJ

Home | Current Version | Previous Version | Text Only | Print | Product List | Glossary On
Versions: 1 2 3 4 5 6 7 8 9 10 11 12 13 14 15 16 17 18 19 20 21 22
817
FTUS41 KPHI 250410 AAA
TAFTTN
TAF AMD
KTTN 250410Z 2504/2524 10010KT P6SM OVC018
     FM250900 09015G25KT 3SM SHRA BR OVC008
      TEMPO 2511/2515 1SM SHRA OVC005
     FM251500 12007KT 5SM -SHRA OVC008
     FM251800 12007KT P6SM OVC008
     FM252200 12007KT P6SM OVC015 PROB30 2522/2524 4SM TSRA
      BKN015CB=

USA.gov is the U.S. government's official web portal to all federal, state and local government web resources and services.